Terminal Aerodrome Forecast
Issued by NWS

Home | Current Version | Previous Version | Text Only | Print | Product List | Glossary On
Versions: 1 2 3 4 5 6 7 8 9 10 11 12 13 14 15 16 17 18 19 20 21 22 23 24 25 26 27 28 29 30
000
FTPA31 PHFO 011400 AAA
TAFKOA
TAF AMD
PHKO 011409Z 0114/0212 14008KT P6SM SCT022 BKN050
      TEMPO 0114/0116 BKN018
     FM011600 13008KT P6SM SCT050 BKN250
     FM012000 24008KT P6SM BKN050
     FM021100 12008KT P6SM SCT050 BKN250=

USA.gov is the U.S. government's official web portal to all federal, state and local government web resources and services.